Time;durP1;ratioP1;P1;durP2;ratioP2;P2;SDS_P1;SDS_P2;PMS_P1;PMS_P2;Temp;Humidity;BMP_temperature;BMP_pressure;BME280_temperature;BME280_humidity;BME280_pressure;Samples;Min_cycle;Max_cycle;Signal;HPM_P1;HPM_P2
2021/12/04 00:01:17;;;;;;;3.00;2.33;;;;;;;;;;5036517;28;20454;-47
2021/12/04 00:03:43;;;;;;;7.00;2.40;;;;;;;;;;5056350;28;20550;-47
2021/12/04 00:06:27;;;;;;;3.50;3.07;;;;;;;;;;5041744;28;20449;-47
2021/12/04 00:08:56;;;;;;;3.03;2.30;;;;;;;;;;5061159;28;20831;-44
2021/12/04 00:11:26;;;;;;;4.57;2.90;;;;;;;;;;5026111;28;21471;-49
2021/12/04 00:13:53;;;;;;;4.10;2.63;;;;;;;;;;5040827;28;20513;-48
2021/12/04 00:16:20;;;;;;;2.83;2.47;;;;;;;;;;5051273;28;20449;-48
2021/12/04 00:18:46;;;;;;;2.40;1.70;;;;;;;;;;5061514;28;20949;-48
2021/12/04 00:21:12;;;;;;;2.30;2.10;;;;;;;;;;5058271;28;20467;-46
2021/12/04 00:23:39;;;;;;;8.30;2.67;;;;;;;;;;5062947;28;20449;-52
2021/12/04 00:26:14;;;;;;;2.50;1.80;;;;;;;;;;5031454;28;20470;-47
2021/12/04 00:28:41;;;;;;;2.60;2.00;;;;;;;;;;5063016;28;20441;-45
2021/12/04 00:31:08;;;;;;;3.63;2.27;;;;;;;;;;5051520;28;20650;-45
2021/12/04 00:33:36;;;;;;;3.43;2.37;;;;;;;;;;5056846;28;20429;-46
2021/12/04 00:36:10;;;;;;;4.80;2.70;;;;;;;;;;5038891;28;20905;-48
2021/12/04 00:49:20;;;;;;;2.60;1.93;;;;;;;;;;5058502;28;20461;-49
2021/12/04 00:51:54;;;;;;;4.33;2.30;;;;;;;;;;5053834;28;20469;-48
2021/12/04 00:54:21;;;;;;;3.10;2.80;;;;;;;;;;5057026;28;20534;-48
2021/12/04 00:56:55;;;;;;;3.93;2.60;;;;;;;;;;5047407;28;20433;-47
2021/12/04 00:59:26;;;;;;;3.00;1.70;;;;;;;;;;5059685;28;20480;-45
2021/12/04 01:01:52;;;;;;;5.67;2.20;;;;;;;;;;5056379;28;20547;-47
2021/12/04 01:04:20;;;;;;;3.43;2.63;;;;;;;;;;5060567;28;20464;-47
2021/12/04 01:06:47;;;;;;;2.43;1.90;;;;;;;;;;5044264;28;20487;-48
2021/12/04 01:09:13;;;;;;;3.03;2.40;;;;;;;;;;5052816;28;20448;-45
2021/12/04 01:12:09;;;;;;;3.00;1.93;;;;;;;;;;5055989;28;20430;-49
2021/12/04 01:14:38;;;;;;;6.07;2.17;;;;;;;;;;5062620;28;20434;-46
2021/12/04 01:17:31;;;;;;;3.10;2.00;;;;;;;;;;5030711;28;20437;-46
2021/12/04 01:20:00;;;;;;;2.73;2.00;;;;;;;;;;5065742;28;20469;-44
2021/12/04 01:22:26;;;;;;;3.50;2.30;;;;;;;;;;5056694;28;20775;-46
2021/12/04 01:24:52;;;;;;;3.47;2.60;;;;;;;;;;5061364;28;20548;-45
2021/12/04 01:27:18;;;;;;;3.20;2.30;;;;;;;;;;5044984;28;20430;-46
2021/12/04 01:29:44;;;;;;;2.70;2.03;;;;;;;;;;5068678;28;20461;-48
2021/12/04 01:32:10;;;;;;;2.60;1.73;;;;;;;;;;5039381;28;22614;-47
2021/12/04 01:34:37;;;;;;;2.93;2.27;;;;;;;;;;5065899;28;20438;-48
2021/12/04 01:37:03;;;;;;;2.13;1.63;;;;;;;;;;5060532;28;20443;-48
2021/12/04 01:39:39;;;;;;;2.97;2.30;;;;;;;;;;5064292;28;20461;-48
2021/12/04 01:42:09;;;;;;;5.13;1.57;;;;;;;;;;5065960;28;20948;-48
2021/12/04 01:44:42;;;;;;;3.40;1.70;;;;;;;;;;5056103;28;20557;-48
2021/12/04 01:47:13;;;;;;;2.83;2.50;;;;;;;;;;5062911;28;20520;-46
2021/12/04 01:49:49;;;;;;;3.40;2.13;;;;;;;;;;5046906;28;20438;-48
2021/12/04 01:52:19;;;;;;;2.80;2.00;;;;;;;;;;5060230;28;20925;-48
2021/12/04 01:54:52;;;;;;;3.70;2.27;;;;;;;;;;5068323;28;20451;-49
2021/12/04 01:57:18;;;;;;;2.93;2.17;;;;;;;;;;5082359;28;20440;-47
2021/12/04 01:59:45;;;;;;;3.63;2.30;;;;;;;;;;5040557;28;21330;-48
2021/12/04 02:02:12;;;;;;;3.30;3.00;;;;;;;;;;5062946;28;20754;-47
2021/12/04 02:04:48;;;;;;;2.97;2.50;;;;;;;;;;5040781;28;20536;-52
2021/12/04 02:07:19;;;;;;;3.77;2.17;;;;;;;;;;5060777;28;20439;-48
2021/12/04 02:09:46;;;;;;;5.50;2.57;;;;;;;;;;5056355;28;20433;-46
2021/12/04 02:12:12;;;;;;;2.87;2.47;;;;;;;;;;5060281;28;21020;-45
2021/12/04 02:14:49;;;;;;;4.13;3.30;;;;;;;;;;5040766;28;20538;-48
2021/12/04 02:17:17;;;;;;;3.10;1.90;;;;;;;;;;5063651;28;20437;-49
2021/12/04 02:19:45;;;;;;;3.50;2.87;;;;;;;;;;5026775;28;20474;-46
2021/12/04 02:22:11;;;;;;;3.93;2.37;;;;;;;;;;5057860;28;20465;-47
2021/12/04 02:24:40;;;;;;;3.47;3.17;;;;;;;;;;5041172;28;23414;-50
2021/12/04 02:27:06;;;;;;;3.10;2.53;;;;;;;;;;5063751;28;20433;-46
2021/12/04 02:29:33;;;;;;;5.87;3.07;;;;;;;;;;5048661;28;21093;-46
2021/12/04 02:31:59;;;;;;;6.50;3.47;;;;;;;;;;5063540;28;20575;-47
2021/12/04 02:34:35;;;;;;;3.33;2.80;;;;;;;;;;5059983;28;20654;-47
2021/12/04 02:37:08;;;;;;;6.50;2.90;;;;;;;;;;5063843;28;20445;-48
2021/12/04 02:39:36;;;;;;;4.30;2.77;;;;;;;;;;5061788;28;20553;-47
2021/12/04 02:42:05;;;;;;;6.00;2.70;;;;;;;;;;5057734;28;20426;-46
2021/12/04 02:44:37;;;;;;;6.37;2.63;;;;;;;;;;5064613;28;20444;-49
2021/12/04 02:47:13;;;;;;;3.20;2.90;;;;;;;;;;5029782;28;20523;-49
2021/12/04 02:49:41;;;;;;;4.77;3.60;;;;;;;;;;5062192;28;20442;-48
2021/12/04 02:52:08;;;;;;;4.13;2.90;;;;;;;;;;5022501;28;20728;-50
2021/12/04 02:54:34;;;;;;;4.73;3.17;;;;;;;;;;5062061;28;20452;-47
2021/12/04 02:57:01;;;;;;;3.50;2.50;;;;;;;;;;5057595;28;21202;-49
2021/12/04 02:59:27;;;;;;;2.93;2.70;;;;;;;;;;5064069;28;20542;-47
2021/12/04 03:02:00;;;;;;;3.47;2.43;;;;;;;;;;5048508;28;20489;-46
2021/12/04 03:04:27;;;;;;;3.40;2.63;;;;;;;;;;5062736;28;20442;-47
2021/12/04 03:06:59;;;;;;;3.33;2.87;;;;;;;;;;5046789;28;20430;-47
2021/12/04 03:09:25;;;;;;;3.10;2.40;;;;;;;;;;5064370;28;20946;-46
2021/12/04 03:11:51;;;;;;;7.27;3.33;;;;;;;;;;5059959;28;20425;-45
2021/12/04 03:14:19;;;;;;;3.10;2.80;;;;;;;;;;5056673;28;20518;-48
2021/12/04 03:16:58;;;;;;;4.03;2.67;;;;;;;;;;5047440;28;20486;-48
2021/12/04 03:19:28;;;;;;;5.60;3.37;;;;;;;;;;5064923;28;20480;-46
2021/12/04 03:21:55;;;;;;;5.23;2.70;;;;;;;;;;5030096;28;20429;-50
2021/12/04 03:24:22;;;;;;;4.60;2.97;;;;;;;;;;5056512;28;20456;-47
2021/12/04 03:26:55;;;;;;;4.63;3.20;;;;;;;;;;5061557;28;20414;-47
2021/12/04 03:29:28;;;;;;;5.07;3.10;;;;;;;;;;5064328;28;20446;-48
2021/12/04 03:42:56;;;;;;;4.13;2.70;;;;;;;;;;5057350;28;20453;-48
2021/12/04 03:45:33;;;;;;;4.00;2.57;;;;;;;;;;5066128;28;20453;-48
2021/12/04 03:48:39;;;;;;;4.03;3.13;;;;;;;;;;5078970;28;20429;-48
2021/12/04 03:50:50;;;;;;;6.83;2.37;;;;;;;;;;5065747;28;20932;-47
2021/12/04 03:53:19;;;;;;;3.43;2.73;;;;;;;;;;5055709;28;20642;-49
2021/12/04 03:55:54;;;;;;;5.70;2.23;;;;;;;;;;5065518;28;20444;-49
2021/12/04 03:58:29;;;;;;;3.60;2.33;;;;;;;;;;5033835;28;20563;-48
2021/12/04 04:00:55;;;;;;;2.50;1.90;;;;;;;;;;5064277;28;20437;-48
2021/12/04 04:03:21;;;;;;;2.40;1.73;;;;;;;;;;5045942;28;20445;-47
2021/12/04 04:05:47;;;;;;;2.30;1.53;;;;;;;;;;5063572;28;20433;-46
2021/12/04 04:08:14;;;;;;;2.23;1.60;;;;;;;;;;5049971;28;20441;-46
2021/12/04 04:10:42;;;;;;;2.47;1.60;;;;;;;;;;5059107;28;20442;-47
2021/12/04 04:13:12;;;;;;;3.90;1.37;;;;;;;;;;5040979;28;20448;-49
2021/12/04 04:15:42;;;;;;;1.73;1.63;;;;;;;;;;5065548;28;20440;-48
2021/12/04 04:18:11;;;;;;;4.23;1.70;;;;;;;;;;5057116;28;20453;-49
2021/12/04 04:20:44;;;;;;;3.13;2.10;;;;;;;;;;5062875;28;21148;-48
2021/12/04 04:23:11;;;;;;;1.83;1.37;;;;;;;;;;5043691;28;20441;-47
2021/12/04 04:25:36;;;;;;;1.73;1.30;;;;;;;;;;5058340;28;20452;-46
2021/12/04 04:28:03;;;;;;;1.80;1.47;;;;;;;;;;5056373;28;20806;-48
2021/12/04 04:30:29;;;;;;;1.33;1.00;;;;;;;;;;5060193;28;22359;-47
2021/12/04 04:32:55;;;;;;;1.60;1.10;;;;;;;;;;5045034;28;20464;-46
2021/12/04 04:35:24;;;;;;;1.60;1.10;;;;;;;;;;5059909;28;20464;-46
2021/12/04 04:38:00;;;;;;;1.30;0.87;;;;;;;;;;5053574;28;20425;-46
2021/12/04 05:00:10;;;;;;;1.27;0.80;;;;;;;;;;5067964;28;20510;-48
2021/12/04 05:13:57;;;;;;;1.20;1.00;;;;;;;;;;5037750;28;20439;-48
2021/12/04 05:16:45;;;;;;;1.50;0.93;;;;;;;;;;5058618;28;20563;-50
2021/12/04 05:19:26;;;;;;;1.00;0.80;;;;;;;;;;5058316;28;20931;-46
2021/12/04 05:21:52;;;;;;;1.10;0.90;;;;;;;;;;5061743;28;20429;-48
2021/12/04 05:24:18;;;;;;;1.00;0.80;;;;;;;;;;5062845;28;20773;-48
2021/12/04 05:26:54;;;;;;;1.63;0.77;;;;;;;;;;5053690;28;20965;-48
2021/12/04 05:29:23;;;;;;;2.13;1.00;;;;;;;;;;5064064;28;20528;-47
2021/12/04 05:31:49;;;;;;;1.57;1.00;;;;;;;;;;5060812;28;20505;-46
2021/12/04 05:34:22;;;;;;;1.23;1.00;;;;;;;;;;5064765;28;20434;-48
2021/12/04 05:37:02;;;;;;;1.67;1.50;;;;;;;;;;5061869;28;20441;-48
2021/12/04 05:39:29;;;;;;;1.17;0.70;;;;;;;;;;5065020;28;20462;-49
2021/12/04 05:42:12;;;;;;;1.70;1.30;;;;;;;;;;5043833;28;20441;-48
2021/12/04 05:44:40;;;;;;;1.10;1.00;;;;;;;;;;5080991;28;20464;-48
2021/12/04 05:47:31;;;;;;;1.10;0.77;;;;;;;;;;5047904;28;20445;-49
2021/12/04 05:50:43;;;;;;;0.90;0.80;;;;;;;;;;5065873;28;20484;-46
2021/12/04 05:55:21;;;;;;;0.80;0.70;;;;;;;;;;5062510;28;20650;-49
2021/12/04 05:57:49;;;;;;;0.90;0.60;;;;;;;;;;5063293;28;20453;-48
2021/12/04 06:00:22;;;;;;;1.10;0.70;;;;;;;;;;5061794;28;20507;-49
2021/12/04 06:02:48;;;;;;;0.93;0.70;;;;;;;;;;5041073;28;20445;-47
2021/12/04 06:05:15;;;;;;;1.10;0.80;;;;;;;;;;5066183;28;20499;-48
2021/12/04 06:07:40;;;;;;;1.10;0.90;;;;;;;;;;5034289;28;20486;-48
2021/12/04 06:10:07;;;;;;;0.90;0.60;;;;;;;;;;5059806;28;20438;-47
2021/12/04 06:12:43;;;;;;;1.10;0.97;;;;;;;;;;5047452;28;20437;-47
2021/12/04 06:15:11;;;;;;;1.10;0.70;;;;;;;;;;5058154;28;20448;-46
2021/12/04 06:17:51;;;;;;;0.80;0.70;;;;;;;;;;5050622;28;20679;-49
2021/12/04 06:23:04;;;;;;;0.80;0.70;;;;;;;;;;5051310;28;20519;-48
2021/12/04 06:25:30;;;;;;;0.93;0.60;;;;;;;;;;5063489;28;20572;-46
2021/12/04 06:27:58;;;;;;;2.03;0.60;;;;;;;;;;5060773;28;20495;-46
2021/12/04 06:30:25;;;;;;;1.67;0.70;;;;;;;;;;5062758;28;20442;-47
2021/12/04 06:32:55;;;;;;;1.00;0.80;;;;;;;;;;5049028;28;20445;-47
2021/12/04 06:35:23;;;;;;;1.00;0.70;;;;;;;;;;5075778;28;20453;-47
2021/12/04 06:38:16;;;;;;;0.80;0.50;;;;;;;;;;5047318;28;20463;-47
2021/12/04 06:40:42;;;;;;;1.13;0.80;;;;;;;;;;5065370;28;20860;-47
2021/12/04 06:43:08;;;;;;;0.90;0.77;;;;;;;;;;5032284;28;20549;-45
2021/12/04 06:45:43;;;;;;;0.80;0.60;;;;;;;;;;5064274;28;20502;-48
2021/12/04 06:48:14;;;;;;;1.00;0.90;;;;;;;;;;5054148;28;23024;-48
2021/12/04 06:50:45;;;;;;;0.77;0.63;;;;;;;;;;5042344;28;20553;-47
2021/12/04 06:53:24;;;;;;;2.67;0.70;;;;;;;;;;5064809;28;20442;-47
2021/12/04 06:55:53;;;;;;;2.10;0.87;;;;;;;;;;5043777;28;20491;-48
2021/12/04 06:58:19;;;;;;;2.80;0.80;;;;;;;;;;5067087;28;21348;-48
2021/12/04 07:00:45;;;;;;;0.80;0.70;;;;;;;;;;5062986;28;20477;-47
2021/12/04 07:03:11;;;;;;;1.17;0.63;;;;;;;;;;5067479;28;20468;-45
2021/12/04 07:05:37;;;;;;;1.13;0.83;;;;;;;;;;5053501;28;20470;-47
2021/12/04 07:08:05;;;;;;;1.00;0.70;;;;;;;;;;5059785;28;20417;-46
2021/12/04 07:10:33;;;;;;;1.50;1.37;;;;;;;;;;5047538;28;20461;-48
2021/12/04 07:12:59;;;;;;;1.00;0.60;;;;;;;;;;5070633;28;20593;-46
2021/12/04 07:15:27;;;;;;;3.07;0.93;;;;;;;;;;5046049;28;21808;-48
2021/12/04 07:17:54;;;;;;;0.93;0.80;;;;;;;;;;5064534;28;20482;-47
2021/12/04 07:20:20;;;;;;;1.00;0.83;;;;;;;;;;5071278;28;21051;-47
2021/12/04 07:22:46;;;;;;;1.17;0.80;;;;;;;;;;5060837;28;20438;-47
2021/12/04 07:25:12;;;;;;;1.87;1.10;;;;;;;;;;5042634;28;20464;-47
2021/12/04 07:27:39;;;;;;;0.80;0.70;;;;;;;;;;5064961;28;20967;-47
2021/12/04 07:30:06;;;;;;;1.00;0.63;;;;;;;;;;5047678;28;20982;-47
2021/12/04 07:32:32;;;;;;;0.90;0.67;;;;;;;;;;5061263;28;20579;-48
2021/12/04 07:34:59;;;;;;;1.03;0.77;;;;;;;;;;5059204;28;20449;-48
2021/12/04 07:37:30;;;;;;;1.10;0.90;;;;;;;;;;5061878;28;20429;-52
2021/12/04 07:39:58;;;;;;;0.80;0.70;;;;;;;;;;5049905;28;20577;-48
2021/12/04 07:42:24;;;;;;;1.57;0.70;;;;;;;;;;5045002;28;20442;-48
2021/12/04 07:44:54;;;;;;;0.80;0.70;;;;;;;;;;5057303;28;20564;-48
2021/12/04 07:47:20;;;;;;;1.33;0.90;;;;;;;;;;5076877;28;20512;-48
2021/12/04 07:49:46;;;;;;;1.40;0.73;;;;;;;;;;5017189;28;20822;-48
2021/12/04 07:52:12;;;;;;;1.47;1.00;;;;;;;;;;5060896;28;20454;-49
2021/12/04 07:54:38;;;;;;;1.00;0.80;;;;;;;;;;5036538;28;20471;-48
2021/12/04 07:57:04;;;;;;;1.20;0.80;;;;;;;;;;5079708;28;20844;-48
2021/12/04 07:59:30;;;;;;;0.80;0.63;;;;;;;;;;5061061;28;20473;-46
2021/12/04 08:01:58;;;;;;;1.03;0.70;;;;;;;;;;5062331;28;20842;-48
2021/12/04 08:04:24;;;;;;;1.13;0.80;;;;;;;;;;5038729;28;20433;-48
2021/12/04 08:06:51;;;;;;;0.97;0.67;;;;;;;;;;5064439;28;20437;-49
2021/12/04 08:09:17;;;;;;;0.90;0.80;;;;;;;;;;5033496;28;20747;-49
2021/12/04 08:11:43;;;;;;;0.90;0.80;;;;;;;;;;5061865;28;20433;-49
2021/12/04 08:14:09;;;;;;;2.10;1.00;;;;;;;;;;5050636;28;20449;-49
2021/12/04 08:16:37;;;;;;;0.97;0.87;;;;;;;;;;5060103;28;20507;-49
2021/12/04 08:19:03;;;;;;;1.20;0.93;;;;;;;;;;5059905;28;20477;-48
2021/12/04 08:21:37;;;;;;;1.00;0.80;;;;;;;;;;5061239;28;20453;-50
2021/12/04 08:24:06;;;;;;;1.10;0.80;;;;;;;;;;5028028;28;20526;-48
2021/12/04 08:26:32;;;;;;;0.80;0.60;;;;;;;;;;5053022;28;20563;-48
2021/12/04 08:28:58;;;;;;;1.37;0.87;;;;;;;;;;5047692;28;20799;-49
2021/12/04 08:31:24;;;;;;;1.70;1.10;;;;;;;;;;5067151;28;20517;-48
2021/12/04 08:33:50;;;;;;;0.93;0.73;;;;;;;;;;5048225;28;20811;-48
2021/12/04 08:36:17;;;;;;;1.53;0.93;;;;;;;;;;5065053;28;20474;-50
2021/12/04 08:38:47;;;;;;;2.00;1.27;;;;;;;;;;5058951;28;20453;-49
2021/12/04 08:41:14;;;;;;;4.30;0.80;;;;;;;;;;5066782;28;20457;-47
2021/12/04 08:43:40;;;;;;;1.20;1.10;;;;;;;;;;5059132;28;20473;-49
2021/12/04 08:46:06;;;;;;;1.30;1.00;;;;;;;;;;5067590;28;20441;-49
2021/12/04 08:48:33;;;;;;;1.20;1.10;;;;;;;;;;5044696;28;20433;-48
2021/12/04 08:51:00;;;;;;;1.50;1.10;;;;;;;;;;5068407;28;20822;-50
2021/12/04 08:53:26;;;;;;;1.10;0.70;;;;;;;;;;5051813;28;20460;-51
2021/12/04 08:55:52;;;;;;;0.90;0.80;;;;;;;;;;5039861;28;20456;-47
2021/12/04 08:58:19;;;;;;;2.30;1.20;;;;;;;;;;5066431;28;20467;-49
2021/12/04 09:00:53;;;;;;;1.40;0.83;;;;;;;;;;5063903;28;20465;-48
2021/12/04 09:03:25;;;;;;;1.10;0.80;;;;;;;;;;5061899;28;20527;-48
2021/12/04 09:05:52;;;;;;;1.63;0.90;;;;;;;;;;5033825;28;20429;-47
2021/12/04 09:08:21;;;;;;;1.30;1.00;;;;;;;;;;5066189;28;20978;-48
2021/12/04 09:10:49;;;;;;;1.43;0.80;;;;;;;;;;5046657;28;20433;-48
2021/12/04 09:13:15;;;;;;;1.10;0.80;;;;;;;;;;5067486;28;20480;-48
2021/12/04 09:15:41;;;;;;;1.53;1.00;;;;;;;;;;5039766;28;20487;-47
2021/12/04 09:18:07;;;;;;;2.77;0.90;;;;;;;;;;5050628;28;20450;-48
2021/12/04 09:20:33;;;;;;;1.00;0.70;;;;;;;;;;5053846;28;20469;-47
2021/12/04 09:23:06;;;;;;;1.00;0.73;;;;;;;;;;5055122;28;20465;-48
2021/12/04 09:25:52;;;;;;;4.27;0.70;;;;;;;;;;5076822;28;20445;-48
2021/12/04 10:14:57;;;;;;;1.10;0.73;;;;;;;;;;5064274;28;20521;-47
2021/12/04 10:17:58;;;;;;;1.57;0.87;;;;;;;;;;5059225;28;20537;-47
2021/12/04 10:20:20;;;;;;;1.00;0.70;;;;;;;;;;5060562;28;21009;-46
2021/12/04 10:23:03;;;;;;;1.43;0.90;;;;;;;;;;5017945;28;20483;-47
2021/12/04 10:32:09;;;;;;;0.90;0.60;;;;;;;;;;5042431;28;20472;-46
2021/12/04 10:33:48;;;;;;;1.37;1.10;;;;;;;;;;5028251;28;20491;-48
2021/12/04 10:36:44;;;;;;;1.40;0.87;;;;;;;;;;5062680;28;20527;-48
2021/12/04 10:39:14;;;;;;;1.00;0.70;;;;;;;;;;5059098;28;20481;-46
2021/12/04 10:41:45;;;;;;;1.33;0.77;;;;;;;;;;5058818;28;20490;-48
2021/12/04 10:44:16;;;;;;;1.73;0.73;;;;;;;;;;5079396;28;20508;-47
2021/12/04 10:47:04;;;;;;;3.80;1.00;;;;;;;;;;5075092;28;20489;-47
2021/12/04 10:49:36;;;;;;;0.80;0.50;;;;;;;;;;5064393;28;20450;-49
2021/12/04 10:52:31;;;;;;;2.50;0.90;;;;;;;;;;5039185;28;21017;-48
2021/12/04 10:55:12;;;;;;;1.00;0.70;;;;;;;;;;5055492;28;20513;-48
2021/12/04 10:58:04;;;;;;;1.87;1.27;;;;;;;;;;5041125;28;20438;-48
2021/12/04 11:00:39;;;;;;;1.57;1.10;;;;;;;;;;5067038;28;20637;-47
2021/12/04 11:03:37;;;;;;;1.03;0.73;;;;;;;;;;5060096;28;20948;-45
2021/12/04 11:34:52;;;;;;;1.50;1.00;;;;;;;;;;5048090;28;20516;-48
2021/12/04 11:40:09;;;;;;;1.10;0.70;;;;;;;;;;5063271;28;20481;-49
2021/12/04 11:42:41;;;;;;;0.93;0.70;;;;;;;;;;5051171;28;20960;-49
2021/12/04 11:45:17;;;;;;;2.03;1.33;;;;;;;;;;5060825;28;20445;-47
2021/12/04 11:47:51;;;;;;;1.30;0.90;;;;;;;;;;5044362;28;20493;-49
2021/12/04 11:50:37;;;;;;;1.40;0.87;;;;;;;;;;5061489;28;20502;-49
2021/12/04 11:53:10;;;;;;;1.63;0.70;;;;;;;;;;5036227;28;20437;-47
2021/12/04 11:55:46;;;;;;;1.00;0.60;;;;;;;;;;5028961;28;20452;-49
2021/12/04 11:58:19;;;;;;;1.17;0.80;;;;;;;;;;5030701;28;20496;-47
2021/12/04 12:00:46;;;;;;;1.37;0.77;;;;;;;;;;5032252;28;21198;-47
2021/12/04 12:03:17;;;;;;;1.00;0.80;;;;;;;;;;5061333;28;20516;-48
2021/12/04 12:05:59;;;;;;;3.27;2.87;;;;;;;;;;5050442;28;20671;-49
2021/12/04 12:08:43;;;;;;;1.60;0.97;;;;;;;;;;5060388;28;20454;-47
2021/12/04 12:11:10;;;;;;;1.30;0.83;;;;;;;;;;5026411;28;23824;-47
2021/12/04 12:13:46;;;;;;;0.90;0.60;;;;;;;;;;5061831;28;20486;-49
2021/12/04 12:16:17;;;;;;;1.23;0.83;;;;;;;;;;5042775;28;21076;-47
2021/12/04 12:18:55;;;;;;;1.53;0.80;;;;;;;;;;5061723;28;20429;-48
2021/12/04 12:21:28;;;;;;;1.10;0.70;;;;;;;;;;5051735;28;20526;-46
2021/12/04 12:26:55;;;;;;;1.77;1.00;;;;;;;;;;5036749;28;20974;-49
2021/12/04 12:32:37;;;;;;;1.20;0.80;;;;;;;;;;5045757;28;20536;-48
2021/12/04 12:37:48;;;;;;;1.33;1.00;;;;;;;;;;5037042;28;20532;-49
2021/12/04 12:40:16;;;;;;;1.87;1.10;;;;;;;;;;5059060;28;20510;-46
2021/12/04 12:42:42;;;;;;;1.50;1.23;;;;;;;;;;5047826;28;20978;-48
2021/12/04 12:45:17;;;;;;;1.83;1.03;;;;;;;;;;5057849;28;20453;-48
2021/12/04 12:47:58;;;;;;;1.37;0.90;;;;;;;;;;5032557;28;20522;-49
2021/12/04 12:50:38;;;;;;;2.50;1.33;;;;;;;;;;5060949;28;21108;-47
2021/12/04 12:53:15;;;;;;;1.30;1.20;;;;;;;;;;5047456;28;20439;-47
2021/12/04 12:56:18;;;;;;;1.50;1.33;;;;;;;;;;5059956;28;20429;-49
2021/12/04 13:12:50;;;;;;;1.20;1.10;;;;;;;;;;5056915;28;20464;-47
2021/12/04 13:15:31;;;;;;;1.10;0.93;;;;;;;;;;5065317;28;20558;-46
2021/12/04 13:17:57;;;;;;;2.20;1.10;;;;;;;;;;5047678;28;20475;-51
2021/12/04 13:20:26;;;;;;;1.27;0.87;;;;;;;;;;5062537;28;20558;-48
2021/12/04 13:22:52;;;;;;;1.27;0.80;;;;;;;;;;5040577;28;20430;-46
2021/12/04 13:25:19;;;;;;;1.37;1.00;;;;;;;;;;5061715;28;20548;-48
2021/12/04 13:30:21;;;;;;;3.43;2.50;;;;;;;;;;5069096;28;21338;-48
2021/12/04 13:32:47;;;;;;;3.33;1.77;;;;;;;;;;5059897;28;20187;-47
2021/12/04 13:35:23;;;;;;;1.93;1.00;;;;;;;;;;5070402;28;20469;-48
2021/12/04 13:37:58;;;;;;;1.67;1.00;;;;;;;;;;5060630;28;20441;-47
2021/12/04 13:40:24;;;;;;;1.70;1.00;;;;;;;;;;5058180;28;21032;-48
2021/12/04 13:42:50;;;;;;;1.77;1.03;;;;;;;;;;5059173;28;20640;-48
2021/12/04 13:45:17;;;;;;;1.70;1.20;;;;;;;;;;5065334;28;20726;-47
2021/12/04 13:47:44;;;;;;;1.27;1.00;;;;;;;;;;5035093;28;20586;-48
2021/12/04 13:53:18;;;;;;;2.20;1.00;;;;;;;;;;5064771;28;20429;-46
2021/12/04 13:55:45;;;;;;;3.67;1.03;;;;;;;;;;5020746;28;20673;-47
2021/12/04 13:58:11;;;;;;;1.33;1.13;;;;;;;;;;5060295;28;20989;-49
2021/12/04 14:00:52;;;;;;;1.53;1.00;;;;;;;;;;5049763;28;20488;-49
2021/12/04 14:03:22;;;;;;;1.43;1.07;;;;;;;;;;5058835;28;20433;-48
2021/12/04 14:06:09;;;;;;;2.37;1.00;;;;;;;;;;5043907;28;20422;-49
2021/12/04 14:08:37;;;;;;;1.77;0.90;;;;;;;;;;5063193;28;20445;-48
2021/12/04 14:11:03;;;;;;;3.50;0.90;;;;;;;;;;5062247;28;20540;-48
2021/12/04 14:13:29;;;;;;;1.50;0.97;;;;;;;;;;5079658;28;20445;-48
2021/12/04 14:15:56;;;;;;;1.33;1.00;;;;;;;;;;5059701;28;20440;-49
2021/12/04 14:18:23;;;;;;;1.50;1.10;;;;;;;;;;5061234;28;20607;-48
2021/12/04 14:21:01;;;;;;;1.17;1.00;;;;;;;;;;5055445;28;21252;-49
2021/12/04 14:23:27;;;;;;;1.03;0.83;;;;;;;;;;5062306;28;20429;-52
2021/12/04 14:26:04;;;;;;;1.60;1.37;;;;;;;;;;5047440;28;20444;-49
2021/12/04 14:28:34;;;;;;;1.40;1.10;;;;;;;;;;5064263;28;20500;-47
2021/12/04 14:31:09;;;;;;;1.00;0.90;;;;;;;;;;5062730;28;20437;-50
2021/12/04 14:33:38;;;;;;;1.27;1.00;;;;;;;;;;5067952;28;20649;-48
2021/12/04 14:36:04;;;;;;;1.57;1.30;;;;;;;;;;5040361;28;20446;-48
2021/12/04 14:38:31;;;;;;;1.40;1.30;;;;;;;;;;5060639;28;20477;-49
2021/12/04 14:41:04;;;;;;;1.43;1.33;;;;;;;;;;5055931;28;20497;-47
2021/12/04 14:43:33;;;;;;;1.60;1.10;;;;;;;;;;5061063;28;20482;-47
2021/12/04 14:45:59;;;;;;;1.37;1.20;;;;;;;;;;5039793;28;20453;-48
2021/12/04 14:48:44;;;;;;;5.17;1.40;;;;;;;;;;5056137;28;20513;-49
2021/12/04 14:51:13;;;;;;;2.90;1.30;;;;;;;;;;5054542;28;20576;-49
2021/12/04 14:53:43;;;;;;;1.93;1.33;;;;;;;;;;5058428;28;20955;-47
2021/12/04 14:56:10;;;;;;;1.50;1.27;;;;;;;;;;5014730;28;20461;-47
2021/12/04 14:58:44;;;;;;;1.87;1.40;;;;;;;;;;5046301;28;20803;-49
2021/12/04 15:01:11;;;;;;;1.83;1.20;;;;;;;;;;5050080;28;20484;-47
2021/12/04 15:03:40;;;;;;;3.63;1.00;;;;;;;;;;5064216;28;20430;-48
2021/12/04 15:06:08;;;;;;;1.50;1.10;;;;;;;;;;5061890;28;20477;-48
2021/12/04 15:08:35;;;;;;;1.50;0.90;;;;;;;;;;5063578;28;20503;-46
2021/12/04 15:11:03;;;;;;;1.20;0.80;;;;;;;;;;5040890;28;20437;-48
2021/12/04 15:13:30;;;;;;;1.13;1.00;;;;;;;;;;5061167;28;20448;-46
2021/12/04 15:16:02;;;;;;;1.30;1.00;;;;;;;;;;5036469;28;20529;-46
2021/12/04 15:18:33;;;;;;;1.90;1.60;;;;;;;;;;5056683;28;20448;-46
2021/12/04 15:21:03;;;;;;;1.80;1.00;;;;;;;;;;5059089;28;20547;-47
2021/12/04 15:23:31;;;;;;;1.60;1.33;;;;;;;;;;5060282;28;20499;-46
2021/12/04 15:26:00;;;;;;;1.70;1.07;;;;;;;;;;5034122;28;20497;-47
2021/12/04 15:28:28;;;;;;;1.50;1.10;;;;;;;;;;5066773;28;20441;-48
2021/12/04 15:30:55;;;;;;;2.50;2.10;;;;;;;;;;5054266;28;20467;-47
2021/12/04 15:33:25;;;;;;;2.33;1.03;;;;;;;;;;5063209;28;20465;-47
2021/12/04 15:35:51;;;;;;;1.70;1.10;;;;;;;;;;5056225;28;20439;-47
2021/12/04 15:38:29;;;;;;;4.57;1.00;;;;;;;;;;5063330;28;20996;-48
2021/12/04 15:50:28;;;;;;;1.90;1.43;;;;;;;;;;5052874;28;20448;-52
2021/12/04 15:55:27;;;;;;;2.37;1.33;;;;;;;;;;5052314;28;20980;-48
2021/12/04 15:57:54;;;;;;;2.27;1.10;;;;;;;;;;5060638;28;20438;-47
2021/12/04 16:00:20;;;;;;;3.53;1.73;;;;;;;;;;5034767;28;20477;-48
2021/12/04 16:02:54;;;;;;;1.73;1.33;;;;;;;;;;5065073;28;20438;-47
2021/12/04 16:05:25;;;;;;;1.50;1.40;;;;;;;;;;5048092;28;20448;-48
2021/12/04 16:08:15;;;;;;;1.20;1.00;;;;;;;;;;5066160;28;20457;-49
2021/12/04 16:10:42;;;;;;;2.30;1.80;;;;;;;;;;5043207;28;20426;-50
2021/12/04 16:13:11;;;;;;;1.63;1.10;;;;;;;;;;5067555;28;20430;-49
2021/12/04 16:15:37;;;;;;;2.20;0.93;;;;;;;;;;5050001;28;20437;-48
2021/12/04 16:18:03;;;;;;;1.30;1.00;;;;;;;;;;5041565;28;21011;-47
2021/12/04 16:20:36;;;;;;;2.40;1.20;;;;;;;;;;5058308;28;20549;-47
2021/12/04 16:23:04;;;;;;;2.70;1.30;;;;;;;;;;5037575;28;20434;-47
2021/12/04 16:25:37;;;;;;;1.40;1.20;;;;;;;;;;5052864;28;20521;-46
2021/12/04 16:28:37;;;;;;;1.23;0.80;;;;;;;;;;5049488;28;20430;-47
2021/12/04 16:31:09;;;;;;;1.40;1.30;;;;;;;;;;5064328;28;20426;-47
2021/12/04 16:33:48;;;;;;;1.27;1.07;;;;;;;;;;5028274;28;20442;-48
2021/12/04 16:36:24;;;;;;;1.17;0.83;;;;;;;;;;5061381;28;20441;-51
2021/12/04 16:38:51;;;;;;;1.70;1.40;;;;;;;;;;5059709;28;20456;-47
2021/12/04 16:41:18;;;;;;;1.33;1.20;;;;;;;;;;5062300;28;20537;-47
2021/12/04 16:43:46;;;;;;;1.50;1.20;;;;;;;;;;5043475;28;20639;-48
2021/12/04 16:46:15;;;;;;;2.63;1.57;;;;;;;;;;5060495;28;20446;-48
2021/12/04 16:48:55;;;;;;;1.77;1.43;;;;;;;;;;5039388;28;20592;-50
2021/12/04 16:57:02;;;;;;;2.20;1.60;;;;;;;;;;5056784;28;20440;-48
2021/12/04 16:59:28;;;;;;;2.00;1.50;;;;;;;;;;5065814;28;21119;-49
2021/12/04 17:02:18;;;;;;;1.47;1.37;;;;;;;;;;5045967;28;20487;-47
2021/12/04 17:04:50;;;;;;;1.20;1.00;;;;;;;;;;5041657;28;20503;-49
2021/12/04 17:07:24;;;;;;;1.30;1.20;;;;;;;;;;5061150;28;20970;-49
2021/12/04 17:09:56;;;;;;;2.50;1.10;;;;;;;;;;5049035;28;20631;-48
2021/12/04 17:12:22;;;;;;;2.10;1.30;;;;;;;;;;5040491;28;20449;-48
2021/12/04 17:14:53;;;;;;;1.93;1.60;;;;;;;;;;5043807;28;20986;-47
2021/12/04 17:17:25;;;;;;;2.37;1.90;;;;;;;;;;5065831;28;20433;-47
2021/12/04 17:19:52;;;;;;;2.80;1.83;;;;;;;;;;5043895;28;20465;-48
2021/12/04 17:22:18;;;;;;;2.60;1.70;;;;;;;;;;5085496;28;20460;-48
2021/12/04 17:24:44;;;;;;;1.80;1.47;;;;;;;;;;5064757;28;20470;-47
2021/12/04 17:27:11;;;;;;;2.97;2.40;;;;;;;;;;5068328;28;20484;-47
2021/12/04 17:29:40;;;;;;;3.43;3.13;;;;;;;;;;5036789;28;20425;-49
2021/12/04 17:32:06;;;;;;;3.00;2.80;;;;;;;;;;5062889;28;20446;-47
2021/12/04 17:34:32;;;;;;;3.00;2.47;;;;;;;;;;5029060;28;20982;-49
2021/12/04 17:36:58;;;;;;;6.20;2.10;;;;;;;;;;5069712;28;20967;-46
2021/12/04 17:39:24;;;;;;;2.80;2.23;;;;;;;;;;5041645;28;20523;-48
2021/12/04 17:41:50;;;;;;;3.37;2.83;;;;;;;;;;5037586;28;20514;-47
2021/12/04 17:44:19;;;;;;;2.80;1.87;;;;;;;;;;5064129;28;20425;-49
2021/12/04 17:46:45;;;;;;;6.20;3.77;;;;;;;;;;5041961;28;23041;-46
2021/12/04 17:49:12;;;;;;;2.20;1.80;;;;;;;;;;5067373;28;20511;-48
2021/12/04 17:51:46;;;;;;;2.13;1.43;;;;;;;;;;5044060;28;20937;-48
2021/12/04 17:54:21;;;;;;;1.93;1.10;;;;;;;;;;5013264;28;20960;-48
2021/12/04 17:56:50;;;;;;;3.43;1.10;;;;;;;;;;5064352;28;20560;-48
2021/12/04 17:59:16;;;;;;;2.20;1.10;;;;;;;;;;5077347;28;21361;-48
2021/12/04 18:01:46;;;;;;;1.30;0.90;;;;;;;;;;5063801;28;20982;-48
2021/12/04 18:04:22;;;;;;;1.70;1.50;;;;;;;;;;5034521;28;20438;-50
2021/12/04 18:06:48;;;;;;;1.70;1.20;;;;;;;;;;5058503;28;20441;-47
2021/12/04 18:09:14;;;;;;;1.67;1.20;;;;;;;;;;5039112;28;21113;-46
2021/12/04 18:11:42;;;;;;;1.60;1.17;;;;;;;;;;5065851;28;20528;-47